CheckWX is a tool to help pilots better visualize weather data.  It is not intended as a substitute for an official pre-flight weather briefing.

22:47:35 UTC

KLWM METAR
Lawrence Municipal Airport
Lawrence, Massachusetts, USA
Current

54 mins ago

KLWM 202154Z 22009KT 10SM FEW050 33/24 A2972 RMK AO2 SLP062 T03330239
Observed
Jul-20 @ 21:54 UTC
Wind
  • 220° at 9 KTS
Visibility
10 SM
Flight Rules
VFR
Cloud Levels
  • Few at 5,000' AGL
Temperature
33°C / 91°F
Dewpoint
24°C / 75°F
Heat Index
39°C / 102°F
Humidity
59%
Altimeter
29.72" Hg
Pressure
1006.42 hPa
Previous

2 hours ago

KLWM 202054Z 21011G16KT 10SM CLR 34/24 A2973 RMK AO2 SLP066 T03440239 56017
Observed
Jul-20 @ 20:54 UTC
Wind
  • 210° at 11 KTS
  • Gusting to 16 KTS
Visibility
10 SM
Flight Rules
VFR
Cloud Levels
  • Clear skies
Temperature
34°C / 93°F
Dewpoint
24°C / 75°F
Heat Index
41°C / 105°F
Humidity
56%
Altimeter
29.73" Hg
Pressure
1006.82 hPa
Previous

3 hours ago

KLWM 201954Z 27006KT 10SM CLR 34/23 A2975 RMK AO2 SLP072 T03390228
Observed
Jul-20 @ 19:54 UTC
Wind
  • 270° at 6 KTS
Visibility
10 SM
Flight Rules
VFR
Cloud Levels
  • Clear skies
Temperature
34°C / 93°F
Dewpoint
23°C / 73°F
Heat Index
39°C / 103°F
Humidity
53%
Altimeter
29.75" Hg
Pressure
1007.42 hPa